Blue Star 1 — SWET — position and weather

sailwx.info

Track history (hours):
 
Tides and Currents Weather Stations Pressure Air Temp Water Temp Dewpoint Dewpoint Depression Visibility Wind Speed Wind Dir Waves Ship Positions

Blue Star 1

Last reported at 2014-Jul-30 02:33 UTC. Time now 2014-Jul-30 05:00 UTC.
Position N 36°56' E 027°16'.

Length 176 m; draft 6.5 m.

Type: Passenger vessel. MMSI: 239710000.

Date/timePositionNaut miles runAvg speedWind from/ knotsBaromVisibWave heightAir tempDewpointWater temp
2014-Jul-30 02:33N 36°56' E 027°16'2524.5
2014-Jul-30 01:33N 36°49' E 026°47'2824.3
2014-Jul-30 00:23N 36°42' E 026°13'2024.4
2014-Jul-29 23:34N 36°37' E 025°48'2323.2
2014-Jul-29 22:34N 36°28' E 025°22'6 5.4
2014-Jul-29 21:31N 36°23' E 025°26'1919.6
2014-Jul-29 20:33N 36°30' E 025°04'2121.2
2014-Jul-29 19:33N 36°44' E 024°44'4621.8
2014-Jul-29 17:28N 37°18' E 024°06'2121.9
2014-Jul-29 16:31N 37°34' E 023°49'2121.2
2014-Jul-29 15:31N 37°53' E 023°37'4 3.6
2014-Jul-29 14:32N 37°56' E 023°38'0 0.0
2014-Jul-29 13:32N 37°56' E 023°38'0 0.0
2014-Jul-29 12:32N 37°56' E 023°38'0 0.0
2014-Jul-29 10:33N 37°56' E 023°38'0 0.0
2014-Jul-29 09:33N 37°56' E 023°38'0 0.0
2014-Jul-29 08:33N 37°56' E 023°38'0 0.0
2014-Jul-29 07:33N 37°56' E 023°38'0 0.0
2014-Jul-29 06:33N 37°56' E 023°38'0 0.0
2014-Jul-29 05:33N 37°56' E 023°38'2 1.9
2014-Jul-29 04:33N 37°55' E 023°37'2120.9
2014-Jul-29 03:33N 37°36' E 023°50'2721.5
2014-Jul-29 02:19N 37°16' E 024°12'1821.5
2014-Jul-29 01:29N 37°02' E 024°26'2021.8
2014-Jul-29 00:33N 36°47' E 024°43'2121.1
2014-Jul-28 23:33N 36°32' E 025°01'2120.6
2014-Jul-28 22:33N 36°23' E 025°24'5 4.6
2014-Jul-28 21:33N 36°27' E 025°22'1919.4
2014-Jul-28 20:33N 36°36' E 025°44'2221.7
2014-Jul-28 19:32N 36°42' E 026°10'78 5.5
2014-Jul-28 05:10N 36°32' E 027°47'1422.3
2014-Jul-28 04:32N 36°37' E 027°30'2711.2
2014-Jul-28 02:07N 36°54' E 027°04'1322.1
2014-Jul-28 01:31N 36°50' E 026°48'3022.1
2014-Jul-28 00:09N 36°42' E 026°11'1321.9
2014-Jul-27 23:34N 36°39' E 025°56'2222.1
2014-Jul-27 22:33N 36°32' E 025°30'9 8.1
2014-Jul-27 21:24N 36°23' E 025°26'1314.7
2014-Jul-27 20:33N 36°27' E 025°11'2221.8
2014-Jul-27 19:32N 36°39' E 024°49'2221.9
2014-Jul-27 18:33N 36°56' E 024°32'4522.1
2014-Jul-27 16:33N 37°28' E 023°53'2121.6
2014-Jul-27 15:33N 37°47' E 023°39'10 9.5
2014-Jul-27 14:31N 37°56' E 023°38'0 0.0
2014-Jul-27 13:31N 37°56' E 023°38'0 0.0
2014-Jul-27 10:32N 37°56' E 023°38'1818.8
2014-Jul-27 09:33N 37°39' E 023°46'6622.1
2014-Jul-27 06:33N 36°49' E 024°40'2121.4
2014-Jul-27 05:33N 36°33' E 024°58'2220.9
2014-Jul-27 04:32N 36°24' E 025°22'4 4.4
2014-Jul-27 03:33N 36°28' E 025°22'1817.9
2014-Jul-27 02:33N 36°35' E 025°42'1919.3
2014-Jul-27 01:33N 36°40' E 026°05'1919.3
2014-Jul-27 00:33N 36°46' E 026°28'15 2.3
2014-Jul-26 18:06N 36°42' E 026°10'1221.5
2014-Jul-26 17:33N 36°38' E 025°56'2221.8
2014-Jul-26 16:33N 36°32' E 025°30'10 8.0
2014-Jul-26 15:21N 36°23' E 025°26'1214.9
2014-Jul-26 14:33N 36°33' E 025°18'2424.4
2014-Jul-26 13:33N 36°53' E 025°00'1413.7
2014-Jul-26 12:32N 37°05' E 025°09'9 9.3
2014-Jul-26 11:34N 37°08' E 024°58'2524.7
2014-Jul-26 10:33N 37°15' E 024°28'2525.0
2014-Jul-26 09:33N 37°29' E 024°02'2524.7
2014-Jul-26 08:34N 37°45' E 023°39'1111.1
2014-Jul-26 07:33N 37°56' E 023°38'0 0.0
2014-Jul-26 06:33N 37°56' E 023°38'0 0.0
2014-Jul-26 05:33N 37°56' E 023°38'2 1.7
2014-Jul-26 04:34N 37°55' E 023°37'2120.7
2014-Jul-26 03:33N 37°37' E 023°50'5121.4
2014-Jul-26 01:10N 36°58' E 024°32'1321.7
2014-Jul-26 00:33N 36°47' E 024°42'2121.2
2014-Jul-25 23:33N 36°32' E 024°60'2221.1
2014-Jul-25 22:32N 36°23' E 025°25'7 7.4
2014-Jul-25 21:33N 36°30' E 025°22'2222.0
2014-Jul-25 20:33N 36°37' E 025°48'2221.9
2014-Jul-25 19:33N 36°43' E 026°15'2221.6
2014-Jul-25 18:31N 36°49' E 026°41'4 0.2
2014-Jul-25 01:33N 36°49' E 026°47'2624.3
2014-Jul-25 00:28N 36°42' E 026°15'2223.9
2014-Jul-24 23:34N 36°36' E 025°49'2423.5
2014-Jul-24 22:34N 36°28' E 025°22'6 5.2
2014-Jul-24 21:27N 36°23' E 025°26'1820.0
2014-Jul-24 20:33N 36°29' E 025°05'2121.1
2014-Jul-24 19:33N 36°43' E 024°45'2221.6
2014-Jul-24 18:34N 36°60' E 024°27'5121.8
2014-Jul-24 16:13N 37°38' E 023°45'1421.7
2014-Jul-24 15:34N 37°51' E 023°37'6 5.5
2014-Jul-24 14:31N 37°56' E 023°38'0 0.0
2014-Jul-24 13:34N 37°56' E 023°38'0 0.0
2014-Jul-24 12:33N 37°56' E 023°38'0 0.0
2014-Jul-24 11:33N 37°56' E 023°38'0 0.0
2014-Jul-24 10:15N 37°56' E 023°38'0 0.0
2014-Jul-24 09:33N 37°56' E 023°38'0 0.0
2014-Jul-24 08:33N 37°56' E 023°38'0 0.0
2014-Jul-24 07:33N 37°56' E 023°38'0 0.0
2014-Jul-24 06:33N 37°56' E 023°38'0 0.0
2014-Jul-24 05:33N 37°56' E 023°38'4 3.8
2014-Jul-24 04:33N 37°53' E 023°38'4521.2
2014-Jul-24 02:25N 37°16' E 024°11'1821.2
2014-Jul-24 01:33N 37°02' E 024°26'2221.5
2014-Jul-24 00:33N 36°45' E 024°43'2120.9
2014-Jul-23 23:33N 36°31' E 025°02'2020.2
2014-Jul-23 22:33N 36°23' E 025°26'5 5.2
2014-Jul-23 21:33N 36°27' E 025°22'2020.1
2014-Jul-23 20:33N 36°36' E 025°44'2221.9
2014-Jul-23 19:33N 36°42' E 026°10'68 4.7
2014-Jul-23 05:06N 36°36' E 027°35'4913.2
2014-Jul-23 01:25N 36°47' E 026°36'2124.6
2014-Jul-23 00:33N 36°42' E 026°11'2524.6
2014-Jul-22 23:34N 36°35' E 025°41'1716.9
2014-Jul-22 22:33N 36°23' E 025°26'2 1.7
2014-Jul-22 21:34N 36°23' E 025°24'2120.9
2014-Jul-22 20:33N 36°32' E 024°60'2120.7
2014-Jul-22 19:33N 36°47' E 024°42'2121.3
2014-Jul-22 18:33N 37°03' E 024°24'2121.2
2014-Jul-22 17:32N 37°18' E 024°05'2521.1
2014-Jul-22 16:20N 37°37' E 023°44'1620.8
2014-Jul-22 15:34N 37°52' E 023°37'4 4.0
2014-Jul-22 14:33N 37°56' E 023°38'0 0.0
2014-Jul-22 13:33N 37°56' E 023°38'0 0.0
2014-Jul-22 12:33N 37°56' E 023°38'0 0.0
2014-Jul-22 11:33N 37°56' E 023°38'0 0.0
2014-Jul-22 10:33N 37°56' E 023°38'0 0.0
2014-Jul-22 09:32N 37°56' E 023°38'0 0.0
2014-Jul-22 08:32N 37°56' E 023°38'0 0.0
2014-Jul-22 07:32N 37°56' E 023°38'0 0.0
2014-Jul-22 06:32N 37°56' E 023°38'0 0.0
2014-Jul-22 05:29N 37°56' E 023°38'1 1.2
2014-Jul-22 04:33N 37°55' E 023°37'2120.7
2014-Jul-22 03:33N 37°37' E 023°50'2221.6
2014-Jul-22 02:33N 37°20' E 024°07'2221.6
2014-Jul-22 01:31N 37°03' E 024°25'2121.9
2014-Jul-22 00:33N 36°47' E 024°41'2121.4
2014-Jul-21 23:33N 36°32' E 025°00'2121.0
2014-Jul-21 22:33N 36°23' E 025°24'4 3.6
2014-Jul-21 21:34N 36°27' E 025°22'1919.0
2014-Jul-21 20:34N 36°36' E 025°43'621.9
2014-Jul-21 20:18N 36°37' E 025°50'1621.9
2014-Jul-21 19:34N 36°42' E 026°10'2221.6
2014-Jul-21 18:33N 36°48' E 026°36'3 0.2
2014-Jul-21 01:03N 36°46' E 026°32'1122.1
2014-Jul-21 00:33N 36°43' E 026°19'2221.8
2014-Jul-20 23:33N 36°37' E 025°53'2221.8
2014-Jul-20 22:34N 36°31' E 025°27'8 8.0
2014-Jul-20 21:33N 36°23' E 025°26'1414.2
2014-Jul-20 20:33N 36°27' E 025°09'2121.4
2014-Jul-20 19:33N 36°40' E 024°48'2121.4
2014-Jul-20 18:33N 36°57' E 024°30'6621.8
2014-Jul-20 15:32N 37°48' E 023°38'5 0.9
2014-Jul-20 10:33N 37°52' E 023°38'4621.5
2014-Jul-20 08:26N 37°15' E 024°12'1921.3
2014-Jul-20 07:32N 37°01' E 024°27'2121.6
2014-Jul-20 06:33N 36°45' E 024°44'2020.3
2014-Jul-20 05:33N 36°31' E 025°03'1818.1
2014-Jul-20 04:33N 36°23' E 025°23'4 4.1
2014-Jul-20 03:34N 36°27' E 025°22'  
Track history (hours):
 
Tides and Currents Weather Stations Pressure Air Temp Water Temp Dewpoint Dewpoint Depression Visibility Wind Speed Wind Dir Waves Ship Positions

Blue Star 1

Last reported at 2014-Jul-30 02:33 UTC. Time now 2014-Jul-30 05:00 UTC.
Position N 36°56' E 027°16'.

Length 176 m; draft 6.5 m.

Type: Passenger vessel. MMSI: 239710000.

Date/timePositionNaut miles runAvg speedWind from/ knotsBaromVisibWave heightAir tempDewpointWater temp
2014-Jul-30 02:33N 36°56' E 027°16'2524.5
2014-Jul-30 01:33N 36°49' E 026°47'2824.3
2014-Jul-30 00:23N 36°42' E 026°13'2024.4
2014-Jul-29 23:34N 36°37' E 025°48'2323.2
2014-Jul-29 22:34N 36°28' E 025°22'6 5.4
2014-Jul-29 21:31N 36°23' E 025°26'1919.6
2014-Jul-29 20:33N 36°30' E 025°04'2121.2
2014-Jul-29 19:33N 36°44' E 024°44'4621.8
2014-Jul-29 17:28N 37°18' E 024°06'2121.9
2014-Jul-29 16:31N 37°34' E 023°49'2121.2
2014-Jul-29 15:31N 37°53' E 023°37'4 3.6
2014-Jul-29 14:32N 37°56' E 023°38'0 0.0
2014-Jul-29 13:32N 37°56' E 023°38'0 0.0
2014-Jul-29 12:32N 37°56' E 023°38'0 0.0
2014-Jul-29 10:33N 37°56' E 023°38'0 0.0
2014-Jul-29 09:33N 37°56' E 023°38'0 0.0
2014-Jul-29 08:33N 37°56' E 023°38'0 0.0
2014-Jul-29 07:33N 37°56' E 023°38'0 0.0
2014-Jul-29 06:33N 37°56' E 023°38'0 0.0
2014-Jul-29 05:33N 37°56' E 023°38'2 1.9
2014-Jul-29 04:33N 37°55' E 023°37'2120.9
2014-Jul-29 03:33N 37°36' E 023°50'2721.5
2014-Jul-29 02:19N 37°16' E 024°12'1821.5
2014-Jul-29 01:29N 37°02' E 024°26'2021.8
2014-Jul-29 00:33N 36°47' E 024°43'2121.1
2014-Jul-28 23:33N 36°32' E 025°01'2120.6
2014-Jul-28 22:33N 36°23' E 025°24'5 4.6
2014-Jul-28 21:33N 36°27' E 025°22'1919.4
2014-Jul-28 20:33N 36°36' E 025°44'2221.7
2014-Jul-28 19:32N 36°42' E 026°10'78 5.5
2014-Jul-28 05:10N 36°32' E 027°47'1422.3
2014-Jul-28 04:32N 36°37' E 027°30'2711.2
2014-Jul-28 02:07N 36°54' E 027°04'1322.1
2014-Jul-28 01:31N 36°50' E 026°48'3022.1
2014-Jul-28 00:09N 36°42' E 026°11'1321.9
2014-Jul-27 23:34N 36°39' E 025°56'2222.1
2014-Jul-27 22:33N 36°32' E 025°30'9 8.1
2014-Jul-27 21:24N 36°23' E 025°26'1314.7
2014-Jul-27 20:33N 36°27' E 025°11'2221.8
2014-Jul-27 19:32N 36°39' E 024°49'2221.9
2014-Jul-27 18:33N 36°56' E 024°32'4522.1
2014-Jul-27 16:33N 37°28' E 023°53'2121.6
2014-Jul-27 15:33N 37°47' E 023°39'10 9.5
2014-Jul-27 14:31N 37°56' E 023°38'0 0.0
2014-Jul-27 13:31N 37°56' E 023°38'0 0.0
2014-Jul-27 10:32N 37°56' E 023°38'1818.8
2014-Jul-27 09:33N 37°39' E 023°46'6622.1
2014-Jul-27 06:33N 36°49' E 024°40'2121.4
2014-Jul-27 05:33N 36°33' E 024°58'2220.9
2014-Jul-27 04:32N 36°24' E 025°22'4 4.4
2014-Jul-27 03:33N 36°28' E 025°22'1817.9
2014-Jul-27 02:33N 36°35' E 025°42'1919.3
2014-Jul-27 01:33N 36°40' E 026°05'1919.3
2014-Jul-27 00:33N 36°46' E 026°28'15 2.3
2014-Jul-26 18:06N 36°42' E 026°10'1221.5
2014-Jul-26 17:33N 36°38' E 025°56'2221.8
2014-Jul-26 16:33N 36°32' E 025°30'10 8.0
2014-Jul-26 15:21N 36°23' E 025°26'1214.9
2014-Jul-26 14:33N 36°33' E 025°18'2424.4
2014-Jul-26 13:33N 36°53' E 025°00'1413.7
2014-Jul-26 12:32N 37°05' E 025°09'9 9.3
2014-Jul-26 11:34N 37°08' E 024°58'2524.7
2014-Jul-26 10:33N 37°15' E 024°28'2525.0
2014-Jul-26 09:33N 37°29' E 024°02'2524.7
2014-Jul-26 08:34N 37°45' E 023°39'1111.1
2014-Jul-26 07:33N 37°56' E 023°38'0 0.0
2014-Jul-26 06:33N 37°56' E 023°38'0 0.0
2014-Jul-26 05:33N 37°56' E 023°38'2 1.7
2014-Jul-26 04:34N 37°55' E 023°37'2120.7
2014-Jul-26 03:33N 37°37' E 023°50'5121.4
2014-Jul-26 01:10N 36°58' E 024°32'1321.7
2014-Jul-26 00:33N 36°47' E 024°42'2121.2
2014-Jul-25 23:33N 36°32' E 024°60'2221.1
2014-Jul-25 22:32N 36°23' E 025°25'7 7.4
2014-Jul-25 21:33N 36°30' E 025°22'2222.0
2014-Jul-25 20:33N 36°37' E 025°48'2221.9
2014-Jul-25 19:33N 36°43' E 026°15'2221.6
2014-Jul-25 18:31N 36°49' E 026°41'4 0.2
2014-Jul-25 01:33N 36°49' E 026°47'2624.3
2014-Jul-25 00:28N 36°42' E 026°15'2223.9
2014-Jul-24 23:34N 36°36' E 025°49'2423.5
2014-Jul-24 22:34N 36°28' E 025°22'6 5.2
2014-Jul-24 21:27N 36°23' E 025°26'1820.0
2014-Jul-24 20:33N 36°29' E 025°05'2121.1
2014-Jul-24 19:33N 36°43' E 024°45'2221.6
2014-Jul-24 18:34N 36°60' E 024°27'5121.8
2014-Jul-24 16:13N 37°38' E 023°45'1421.7
2014-Jul-24 15:34N 37°51' E 023°37'6 5.5
2014-Jul-24 14:31N 37°56' E 023°38'0 0.0
2014-Jul-24 13:34N 37°56' E 023°38'0 0.0
2014-Jul-24 12:33N 37°56' E 023°38'0 0.0
2014-Jul-24 11:33N 37°56' E 023°38'0 0.0
2014-Jul-24 10:15N 37°56' E 023°38'0 0.0
2014-Jul-24 09:33N 37°56' E 023°38'0 0.0
2014-Jul-24 08:33N 37°56' E 023°38'0 0.0
2014-Jul-24 07:33N 37°56' E 023°38'0 0.0
2014-Jul-24 06:33N 37°56' E 023°38'0 0.0
2014-Jul-24 05:33N 37°56' E 023°38'4 3.8
2014-Jul-24 04:33N 37°53' E 023°38'4521.2
2014-Jul-24 02:25N 37°16' E 024°11'1821.2
2014-Jul-24 01:33N 37°02' E 024°26'2221.5
2014-Jul-24 00:33N 36°45' E 024°43'2120.9
2014-Jul-23 23:33N 36°31' E 025°02'2020.2
2014-Jul-23 22:33N 36°23' E 025°26'5 5.2
2014-Jul-23 21:33N 36°27' E 025°22'2020.1
2014-Jul-23 20:33N 36°36' E 025°44'2221.9
2014-Jul-23 19:33N 36°42' E 026°10'68 4.7
2014-Jul-23 05:06N 36°36' E 027°35'4913.2
2014-Jul-23 01:25N 36°47' E 026°36'2124.6
2014-Jul-23 00:33N 36°42' E 026°11'2524.6
2014-Jul-22 23:34N 36°35' E 025°41'1716.9
2014-Jul-22 22:33N 36°23' E 025°26'2 1.7
2014-Jul-22 21:34N 36°23' E 025°24'2120.9
2014-Jul-22 20:33N 36°32' E 024°60'2120.7
2014-Jul-22 19:33N 36°47' E 024°42'2121.3
2014-Jul-22 18:33N 37°03' E 024°24'2121.2
2014-Jul-22 17:32N 37°18' E 024°05'2521.1
2014-Jul-22 16:20N 37°37' E 023°44'1620.8
2014-Jul-22 15:34N 37°52' E 023°37'4 4.0
2014-Jul-22 14:33N 37°56' E 023°38'0 0.0
2014-Jul-22 13:33N 37°56' E 023°38'0 0.0
2014-Jul-22 12:33N 37°56' E 023°38'0 0.0
2014-Jul-22 11:33N 37°56' E 023°38'0 0.0
2014-Jul-22 10:33N 37°56' E 023°38'0 0.0
2014-Jul-22 09:32N 37°56' E 023°38'0 0.0
2014-Jul-22 08:32N 37°56' E 023°38'0 0.0
2014-Jul-22 07:32N 37°56' E 023°38'0 0.0
2014-Jul-22 06:32N 37°56' E 023°38'0 0.0
2014-Jul-22 05:29N 37°56' E 023°38'1 1.2
2014-Jul-22 04:33N 37°55' E 023°37'2120.7
2014-Jul-22 03:33N 37°37' E 023°50'2221.6
2014-Jul-22 02:33N 37°20' E 024°07'2221.6
2014-Jul-22 01:31N 37°03' E 024°25'2121.9
2014-Jul-22 00:33N 36°47' E 024°41'2121.4
2014-Jul-21 23:33N 36°32' E 025°00'2121.0
2014-Jul-21 22:33N 36°23' E 025°24'4 3.6
2014-Jul-21 21:34N 36°27' E 025°22'1919.0
2014-Jul-21 20:34N 36°36' E 025°43'621.9
2014-Jul-21 20:18N 36°37' E 025°50'1621.9
2014-Jul-21 19:34N 36°42' E 026°10'2221.6
2014-Jul-21 18:33N 36°48' E 026°36'3 0.2
2014-Jul-21 01:03N 36°46' E 026°32'1122.1
2014-Jul-21 00:33N 36°43' E 026°19'2221.8
2014-Jul-20 23:33N 36°37' E 025°53'2221.8
2014-Jul-20 22:34N 36°31' E 025°27'8 8.0
2014-Jul-20 21:33N 36°23' E 025°26'1414.2
2014-Jul-20 20:33N 36°27' E 025°09'2121.4
2014-Jul-20 19:33N 36°40' E 024°48'2121.4
2014-Jul-20 18:33N 36°57' E 024°30'6621.8
2014-Jul-20 15:32N 37°48' E 023°38'5 0.9
2014-Jul-20 10:33N 37°52' E 023°38'4621.5
2014-Jul-20 08:26N 37°15' E 024°12'1921.3
2014-Jul-20 07:32N 37°01' E 024°27'2121.6
2014-Jul-20 06:33N 36°45' E 024°44'2020.3
2014-Jul-20 05:33N 36°31' E 025°03'1818.1
2014-Jul-20 04:33N 36°23' E 025°23'4 4.1
2014-Jul-20 03:34N 36°27' E 025°22'  

Dump ship's entire track history